sensor_id;sensor_type;location;lat;lon;timestamp;P1;durP1;ratioP1;P2;durP2;ratioP2
23800;SDS011;12081;48.614;10.226;2023-08-01T01:27:22;15.03;;;5.97;;
23800;SDS011;12081;48.614;10.226;2023-08-01T05:30:44;6.17;;;4.63;;
23800;SDS011;12081;48.614;10.226;2023-08-01T05:33:29;8.17;;;5.40;;
23800;SDS011;12081;48.614;10.226;2023-08-01T05:36:13;15.30;;;5.30;;
23800;SDS011;12081;48.614;10.226;2023-08-01T05:38:57;6.10;;;4.43;;
23800;SDS011;12081;48.614;10.226;2023-08-01T05:41:41;5.97;;;4.80;;
23800;SDS011;12081;48.614;10.226;2023-08-01T05:44:25;8.10;;;4.73;;
23800;SDS011;12081;48.614;10.226;2023-08-01T05:47:09;7.10;;;4.77;;
23800;SDS011;12081;48.614;10.226;2023-08-01T05:49:53;5.83;;;4.50;;
23800;SDS011;12081;48.614;10.226;2023-08-01T05:52:37;9.47;;;5.00;;
23800;SDS011;12081;48.614;10.226;2023-08-01T05:55:21;7.63;;;5.03;;
23800;SDS011;12081;48.614;10.226;2023-08-01T05:58:05;10.67;;;4.83;;
23800;SDS011;12081;48.614;10.226;2023-08-01T06:00:49;7.67;;;4.80;;
23800;SDS011;12081;48.614;10.226;2023-08-01T06:03:33;8.20;;;5.27;;
23800;SDS011;12081;48.614;10.226;2023-08-01T06:06:17;6.73;;;5.17;;
23800;SDS011;12081;48.614;10.226;2023-08-01T06:09:01;10.20;;;5.27;;
23800;SDS011;12081;48.614;10.226;2023-08-01T06:11:46;7.73;;;5.20;;
23800;SDS011;12081;48.614;10.226;2023-08-01T06:14:30;6.57;;;4.73;;
23800;SDS011;12081;48.614;10.226;2023-08-01T06:17:14;9.57;;;4.63;;
23800;SDS011;12081;48.614;10.226;2023-08-01T06:19:59;8.43;;;4.83;;
23800;SDS011;12081;48.614;10.226;2023-08-01T06:22:43;7.30;;;4.60;;
23800;SDS011;12081;48.614;10.226;2023-08-01T06:25:27;9.90;;;4.53;;
23800;SDS011;12081;48.614;10.226;2023-08-01T06:28:11;8.20;;;5.10;;
23800;SDS011;12081;48.614;10.226;2023-08-01T06:30:55;7.07;;;4.73;;
23800;SDS011;12081;48.614;10.226;2023-08-01T06:33:39;6.97;;;5.03;;
23800;SDS011;12081;48.614;10.226;2023-08-01T06:36:23;8.30;;;4.90;;
23800;SDS011;12081;48.614;10.226;2023-08-01T06:39:07;7.50;;;4.93;;
23800;SDS011;12081;48.614;10.226;2023-08-01T06:41:52;7.67;;;4.67;;
23800;SDS011;12081;48.614;10.226;2023-08-01T06:44:36;8.70;;;4.60;;
23800;SDS011;12081;48.614;10.226;2023-08-01T06:47:20;5.93;;;3.70;;
23800;SDS011;12081;48.614;10.226;2023-08-01T06:50:04;6.57;;;3.87;;
23800;SDS011;12081;48.614;10.226;2023-08-01T06:52:49;5.33;;;3.70;;
23800;SDS011;12081;48.614;10.226;2023-08-01T06:55:33;6.63;;;3.80;;
23800;SDS011;12081;48.614;10.226;2023-08-01T06:58:18;9.47;;;3.93;;
23800;SDS011;12081;48.614;10.226;2023-08-01T07:01:02;8.50;;;4.60;;
23800;SDS011;12081;48.614;10.226;2023-08-01T07:03:46;7.73;;;4.93;;
23800;SDS011;12081;48.614;10.226;2023-08-01T07:06:30;5.30;;;3.80;;
23800;SDS011;12081;48.614;10.226;2023-08-01T07:09:15;10.50;;;4.00;;
23800;SDS011;12081;48.614;10.226;2023-08-01T07:11:59;7.07;;;4.23;;
23800;SDS011;12081;48.614;10.226;2023-08-01T07:14:43;5.77;;;4.23;;
23800;SDS011;12081;48.614;10.226;2023-08-01T07:17:27;9.37;;;4.30;;
23800;SDS011;12081;48.614;10.226;2023-08-01T07:20:11;6.50;;;4.17;;
23800;SDS011;12081;48.614;10.226;2023-08-01T07:22:56;7.10;;;3.77;;
23800;SDS011;12081;48.614;10.226;2023-08-01T07:25:40;7.87;;;4.10;;
23800;SDS011;12081;48.614;10.226;2023-08-01T07:28:24;5.60;;;3.80;;
23800;SDS011;12081;48.614;10.226;2023-08-01T07:31:08;7.47;;;4.43;;
23800;SDS011;12081;48.614;10.226;2023-08-01T07:33:52;4.97;;;4.00;;
23800;SDS011;12081;48.614;10.226;2023-08-01T07:36:36;4.47;;;3.57;;
23800;SDS011;12081;48.614;10.226;2023-08-01T07:39:20;5.20;;;3.60;;
23800;SDS011;12081;48.614;10.226;2023-08-01T07:42:05;6.13;;;4.03;;
23800;SDS011;12081;48.614;10.226;2023-08-01T07:44:49;5.67;;;4.20;;
23800;SDS011;12081;48.614;10.226;2023-08-01T07:47:33;5.80;;;3.80;;
23800;SDS011;12081;48.614;10.226;2023-08-01T07:50:17;6.07;;;3.97;;
23800;SDS011;12081;48.614;10.226;2023-08-01T07:53:01;6.53;;;4.03;;
23800;SDS011;12081;48.614;10.226;2023-08-01T07:55:45;6.00;;;4.33;;
23800;SDS011;12081;48.614;10.226;2023-08-01T07:58:29;7.07;;;4.43;;
23800;SDS011;12081;48.614;10.226;2023-08-01T08:01:13;6.50;;;4.50;;
23800;SDS011;12081;48.614;10.226;2023-08-01T08:03:57;5.87;;;4.00;;
23800;SDS011;12081;48.614;10.226;2023-08-01T08:06:41;6.50;;;3.70;;
23800;SDS011;12081;48.614;10.226;2023-08-01T08:09:26;8.13;;;3.83;;
23800;SDS011;12081;48.614;10.226;2023-08-01T08:12:10;6.47;;;4.20;;
23800;SDS011;12081;48.614;10.226;2023-08-01T08:14:54;5.37;;;4.40;;
23800;SDS011;12081;48.614;10.226;2023-08-01T08:17:38;6.40;;;3.77;;
23800;SDS011;12081;48.614;10.226;2023-08-01T08:20:22;7.73;;;3.90;;
23800;SDS011;12081;48.614;10.226;2023-08-01T08:23:06;9.57;;;4.13;;
23800;SDS011;12081;48.614;10.226;2023-08-01T08:25:51;6.00;;;4.00;;
23800;SDS011;12081;48.614;10.226;2023-08-01T08:28:36;7.00;;;4.23;;
23800;SDS011;12081;48.614;10.226;2023-08-01T08:31:20;5.77;;;3.67;;
23800;SDS011;12081;48.614;10.226;2023-08-01T08:34:04;5.73;;;3.97;;
23800;SDS011;12081;48.614;10.226;2023-08-01T08:36:48;7.83;;;4.20;;
23800;SDS011;12081;48.614;10.226;2023-08-01T08:39:35;7.13;;;4.07;;
23800;SDS011;12081;48.614;10.226;2023-08-01T08:42:19;7.07;;;4.00;;
23800;SDS011;12081;48.614;10.226;2023-08-01T08:45:03;4.60;;;3.53;;
23800;SDS011;12081;48.614;10.226;2023-08-01T08:47:52;5.90;;;4.83;;
23800;SDS011;12081;48.614;10.226;2023-08-01T08:50:42;6.17;;;4.20;;
23800;SDS011;12081;48.614;10.226;2023-08-01T08:53:28;5.03;;;3.70;;
23800;SDS011;12081;48.614;10.226;2023-08-01T08:56:14;6.87;;;3.97;;
23800;SDS011;12081;48.614;10.226;2023-08-01T08:58:58;7.87;;;4.57;;
23800;SDS011;12081;48.614;10.226;2023-08-01T09:01:43;5.97;;;4.80;;
23800;SDS011;12081;48.614;10.226;2023-08-01T09:04:29;6.33;;;4.63;;
23800;SDS011;12081;48.614;10.226;2023-08-01T09:07:16;7.60;;;5.13;;
23800;SDS011;12081;48.614;10.226;2023-08-01T09:10:06;8.37;;;4.60;;
23800;SDS011;12081;48.614;10.226;2023-08-01T09:12:50;6.93;;;4.90;;
23800;SDS011;12081;48.614;10.226;2023-08-01T09:15:35;9.93;;;4.00;;
23800;SDS011;12081;48.614;10.226;2023-08-01T09:18:20;7.40;;;4.27;;
23800;SDS011;12081;48.614;10.226;2023-08-01T09:21:04;6.70;;;4.63;;
23800;SDS011;12081;48.614;10.226;2023-08-01T09:23:48;5.70;;;4.27;;
23800;SDS011;12081;48.614;10.226;2023-08-01T09:26:33;7.10;;;4.10;;
23800;SDS011;12081;48.614;10.226;2023-08-01T09:29:17;7.57;;;4.20;;
23800;SDS011;12081;48.614;10.226;2023-08-01T09:32:11;6.97;;;4.43;;
23800;SDS011;12081;48.614;10.226;2023-08-01T09:34:59;5.47;;;4.00;;
23800;SDS011;12081;48.614;10.226;2023-08-01T09:37:44;5.43;;;3.83;;
23800;SDS011;12081;48.614;10.226;2023-08-01T09:40:35;6.73;;;4.67;;
23800;SDS011;12081;48.614;10.226;2023-08-01T09:43:23;9.57;;;4.40;;
23800;SDS011;12081;48.614;10.226;2023-08-01T09:46:07;5.87;;;4.20;;
23800;SDS011;12081;48.614;10.226;2023-08-01T09:48:51;5.93;;;4.63;;
23800;SDS011;12081;48.614;10.226;2023-08-01T09:51:45;5.97;;;4.33;;
23800;SDS011;12081;48.614;10.226;2023-08-01T09:54:34;9.10;;;4.50;;
23800;SDS011;12081;48.614;10.226;2023-08-01T09:57:18;6.63;;;4.10;;
23800;SDS011;12081;48.614;10.226;2023-08-01T10:00:04;5.07;;;3.67;;
23800;SDS011;12081;48.614;10.226;2023-08-01T10:02:49;5.63;;;4.23;;
23800;SDS011;12081;48.614;10.226;2023-08-01T10:05:37;7.87;;;4.50;;
23800;SDS011;12081;48.614;10.226;2023-08-01T10:08:23;6.20;;;3.97;;
23800;SDS011;12081;48.614;10.226;2023-08-01T10:11:08;7.57;;;4.20;;
23800;SDS011;12081;48.614;10.226;2023-08-01T10:13:52;7.37;;;5.03;;
23800;SDS011;12081;48.614;10.226;2023-08-01T10:16:37;9.77;;;4.83;;
23800;SDS011;12081;48.614;10.226;2023-08-01T10:19:22;6.00;;;4.83;;
23800;SDS011;12081;48.614;10.226;2023-08-01T10:22:07;5.37;;;4.03;;
23800;SDS011;12081;48.614;10.226;2023-08-01T10:24:53;6.97;;;4.30;;
23800;SDS011;12081;48.614;10.226;2023-08-01T10:27:38;5.83;;;3.93;;
23800;SDS011;12081;48.614;10.226;2023-08-01T10:30:25;5.90;;;3.70;;
23800;SDS011;12081;48.614;10.226;2023-08-01T10:33:10;3.90;;;2.93;;
23800;SDS011;12081;48.614;10.226;2023-08-01T10:35:56;12.23;;;3.63;;
23800;SDS011;12081;48.614;10.226;2023-08-01T10:38:47;7.40;;;3.80;;
23800;SDS011;12081;48.614;10.226;2023-08-01T10:41:33;5.57;;;4.00;;
23800;SDS011;12081;48.614;10.226;2023-08-01T10:44:20;5.00;;;3.63;;
23800;SDS011;12081;48.614;10.226;2023-08-01T10:47:04;5.03;;;3.97;;
23800;SDS011;12081;48.614;10.226;2023-08-01T10:49:49;5.07;;;3.30;;
23800;SDS011;12081;48.614;10.226;2023-08-01T10:52:33;5.73;;;3.97;;
23800;SDS011;12081;48.614;10.226;2023-08-01T10:55:17;7.63;;;3.67;;
23800;SDS011;12081;48.614;10.226;2023-08-01T10:58:01;4.80;;;4.07;;
23800;SDS011;12081;48.614;10.226;2023-08-01T11:00:46;5.90;;;3.33;;
23800;SDS011;12081;48.614;10.226;2023-08-01T11:03:40;7.40;;;3.43;;
23800;SDS011;12081;48.614;10.226;2023-08-01T11:06:25;5.23;;;2.80;;
23800;SDS011;12081;48.614;10.226;2023-08-01T11:09:16;3.53;;;2.50;;
23800;SDS011;12081;48.614;10.226;2023-08-01T11:12:01;5.93;;;2.17;;
23800;SDS011;12081;48.614;10.226;2023-08-01T11:14:46;4.03;;;2.07;;
23800;SDS011;12081;48.614;10.226;2023-08-01T11:17:30;2.97;;;1.70;;
23800;SDS011;12081;48.614;10.226;2023-08-01T11:20:15;2.50;;;1.50;;
23800;SDS011;12081;48.614;10.226;2023-08-01T11:23:01;3.40;;;1.73;;
23800;SDS011;12081;48.614;10.226;2023-08-01T11:25:45;2.30;;;1.50;;
23800;SDS011;12081;48.614;10.226;2023-08-01T11:28:32;2.70;;;1.53;;
23800;SDS011;12081;48.614;10.226;2023-08-01T11:31:17;2.10;;;1.10;;
23800;SDS011;12081;48.614;10.226;2023-08-01T11:34:01;3.37;;;1.43;;
23800;SDS011;12081;48.614;10.226;2023-08-01T11:36:45;4.40;;;2.10;;
23800;SDS011;12081;48.614;10.226;2023-08-01T11:39:29;2.80;;;1.93;;
23800;SDS011;12081;48.614;10.226;2023-08-01T11:42:17;3.03;;;2.27;;
23800;SDS011;12081;48.614;10.226;2023-08-01T11:45:11;3.30;;;2.30;;
23800;SDS011;12081;48.614;10.226;2023-08-01T11:47:55;2.77;;;2.40;;
23800;SDS011;12081;48.614;10.226;2023-08-01T11:50:39;3.70;;;2.50;;
23800;SDS011;12081;48.614;10.226;2023-08-01T11:53:25;3.20;;;2.20;;
23800;SDS011;12081;48.614;10.226;2023-08-01T11:56:19;3.73;;;2.60;;
23800;SDS011;12081;48.614;10.226;2023-08-01T12:01:56;3.63;;;1.90;;
23800;SDS011;12081;48.614;10.226;2023-08-01T12:04:40;3.17;;;1.60;;
23800;SDS011;12081;48.614;10.226;2023-08-01T12:07:25;1.97;;;1.30;;
23800;SDS011;12081;48.614;10.226;2023-08-01T12:10:09;2.90;;;1.20;;
23800;SDS011;12081;48.614;10.226;2023-08-01T12:12:53;1.93;;;1.00;;
23800;SDS011;12081;48.614;10.226;2023-08-01T12:15:37;3.17;;;1.07;;
23800;SDS011;12081;48.614;10.226;2023-08-01T12:21:06;3.30;;;0.93;;
23800;SDS011;12081;48.614;10.226;2023-08-01T12:23:50;1.47;;;1.00;;
23800;SDS011;12081;48.614;10.226;2023-08-01T12:26:34;2.85;;;1.25;;
23800;SDS011;12081;48.614;10.226;2023-08-01T12:29:19;2.42;;;1.63;;
23800;SDS011;12081;48.614;10.226;2023-08-01T12:32:03;2.53;;;1.45;;
23800;SDS011;12081;48.614;10.226;2023-08-01T12:34:47;3.08;;;1.27;;
23800;SDS011;12081;48.614;10.226;2023-08-01T12:37:31;3.47;;;1.33;;
23800;SDS011;12081;48.614;10.226;2023-08-01T12:40:15;2.90;;;1.52;;
23800;SDS011;12081;48.614;10.226;2023-08-01T12:42:59;2.17;;;1.35;;
23800;SDS011;12081;48.614;10.226;2023-08-01T12:45:43;3.25;;;1.42;;
23800;SDS011;12081;48.614;10.226;2023-08-01T12:48:28;2.60;;;1.15;;
23800;SDS011;12081;48.614;10.226;2023-08-01T12:51:12;1.23;;;1.00;;
23800;SDS011;12081;48.614;10.226;2023-08-01T12:53:59;1.88;;;1.10;;
23800;SDS011;12081;48.614;10.226;2023-08-01T12:56:43;3.30;;;1.02;;
23800;SDS011;12081;48.614;10.226;2023-08-01T12:59:27;2.17;;;0.40;;
23800;SDS011;12081;48.614;10.226;2023-08-01T13:02:11;1.20;;;0.73;;
23800;SDS011;12081;48.614;10.226;2023-08-01T13:04:56;1.33;;;0.80;;
23800;SDS011;12081;48.614;10.226;2023-08-01T13:07:40;1.60;;;0.80;;
23800;SDS011;12081;48.614;10.226;2023-08-01T13:10:24;3.05;;;1.00;;
23800;SDS011;12081;48.614;10.226;2023-08-01T13:13:08;1.23;;;0.85;;
23800;SDS011;12081;48.614;10.226;2023-08-01T13:15:52;1.75;;;0.70;;
23800;SDS011;12081;48.614;10.226;2023-08-01T13:18:37;1.30;;;0.63;;
23800;SDS011;12081;48.614;10.226;2023-08-01T13:21:27;3.72;;;0.82;;
23800;SDS011;12081;48.614;10.226;2023-08-01T13:24:11;3.88;;;0.82;;
23800;SDS011;12081;48.614;10.226;2023-08-01T13:26:55;1.80;;;0.70;;
23800;SDS011;12081;48.614;10.226;2023-08-01T13:29:39;3.13;;;0.90;;
23800;SDS011;12081;48.614;10.226;2023-08-01T13:32:23;1.60;;;0.70;;
23800;SDS011;12081;48.614;10.226;2023-08-01T13:35:07;1.52;;;0.60;;
23800;SDS011;12081;48.614;10.226;2023-08-01T13:37:51;1.83;;;0.82;;
23800;SDS011;12081;48.614;10.226;2023-08-01T13:40:35;1.08;;;0.60;;
23800;SDS011;12081;48.614;10.226;2023-08-01T13:43:19;1.50;;;0.68;;
23800;SDS011;12081;48.614;10.226;2023-08-01T13:46:11;1.23;;;0.90;;
23800;SDS011;12081;48.614;10.226;2023-08-01T13:48:57;3.90;;;0.98;;
23800;SDS011;12081;48.614;10.226;2023-08-01T13:51:41;1.10;;;0.75;;
23800;SDS011;12081;48.614;10.226;2023-08-01T13:54:25;1.50;;;1.13;;
23800;SDS011;12081;48.614;10.226;2023-08-01T13:57:10;2.83;;;0.82;;
23800;SDS011;12081;48.614;10.226;2023-08-01T13:59:54;1.17;;;0.90;;
23800;SDS011;12081;48.614;10.226;2023-08-01T14:02:38;0.68;;;0.68;;
23800;SDS011;12081;48.614;10.226;2023-08-01T14:05:25;1.10;;;1.00;;
23800;SDS011;12081;48.614;10.226;2023-08-01T14:08:10;1.70;;;0.90;;
23800;SDS011;12081;48.614;10.226;2023-08-01T14:10:54;1.75;;;0.95;;
23800;SDS011;12081;48.614;10.226;2023-08-01T14:13:38;1.52;;;0.77;;
23800;SDS011;12081;48.614;10.226;2023-08-01T14:16:22;1.35;;;0.95;;
23800;SDS011;12081;48.614;10.226;2023-08-01T14:19:06;1.67;;;0.80;;
23800;SDS011;12081;48.614;10.226;2023-08-01T14:21:50;1.50;;;1.00;;
23800;SDS011;12081;48.614;10.226;2023-08-01T14:24:34;1.23;;;0.80;;
23800;SDS011;12081;48.614;10.226;2023-08-01T14:27:18;1.98;;;1.10;;
23800;SDS011;12081;48.614;10.226;2023-08-01T14:30:02;2.50;;;1.05;;
23800;SDS011;12081;48.614;10.226;2023-08-01T14:32:49;3.20;;;0.90;;
23800;SDS011;12081;48.614;10.226;2023-08-01T14:35:36;1.75;;;1.10;;
23800;SDS011;12081;48.614;10.226;2023-08-01T14:38:21;1.90;;;1.15;;
23800;SDS011;12081;48.614;10.226;2023-08-01T14:41:06;1.73;;;0.80;;
23800;SDS011;12081;48.614;10.226;2023-08-01T14:43:50;1.15;;;1.05;;
23800;SDS011;12081;48.614;10.226;2023-08-01T14:46:35;1.75;;;1.00;;
23800;SDS011;12081;48.614;10.226;2023-08-01T14:49:20;4.25;;;1.60;;
23800;SDS011;12081;48.614;10.226;2023-08-01T14:52:05;1.40;;;0.88;;
23800;SDS011;12081;48.614;10.226;2023-08-01T14:54:49;1.88;;;0.90;;
23800;SDS011;12081;48.614;10.226;2023-08-01T14:57:34;1.60;;;0.90;;
23800;SDS011;12081;48.614;10.226;2023-08-01T15:05:24;2.15;;;0.88;;
23800;SDS011;12081;48.614;10.226;2023-08-01T15:08:08;1.23;;;0.90;;
23800;SDS011;12081;48.614;10.226;2023-08-01T15:10:52;3.40;;;1.10;;
23800;SDS011;12081;48.614;10.226;2023-08-01T15:13:36;1.58;;;1.00;;
23800;SDS011;12081;48.614;10.226;2023-08-01T15:16:21;1.23;;;0.75;;
23800;SDS011;12081;48.614;10.226;2023-08-01T15:19:05;1.20;;;0.90;;
23800;SDS011;12081;48.614;10.226;2023-08-01T15:21:49;1.10;;;1.00;;
23800;SDS011;12081;48.614;10.226;2023-08-01T15:24:33;1.85;;;1.25;;
23800;SDS011;12081;48.614;10.226;2023-08-01T15:27:17;1.58;;;1.13;;
23800;SDS011;12081;48.614;10.226;2023-08-01T15:30:01;4.88;;;1.45;;
23800;SDS011;12081;48.614;10.226;2023-08-01T15:32:45;1.63;;;1.20;;
23800;SDS011;12081;48.614;10.226;2023-08-01T15:35:29;1.65;;;0.90;;
23800;SDS011;12081;48.614;10.226;2023-08-01T15:38:13;1.40;;;1.15;;
23800;SDS011;12081;48.614;10.226;2023-08-01T15:40:58;1.83;;;1.10;;
23800;SDS011;12081;48.614;10.226;2023-08-01T15:43:45;0.80;;;0.75;;
23800;SDS011;12081;48.614;10.226;2023-08-01T15:46:29;1.55;;;1.10;;
23800;SDS011;12081;48.614;10.226;2023-08-01T15:49:13;1.70;;;1.10;;
23800;SDS011;12081;48.614;10.226;2023-08-01T15:51:57;1.88;;;0.98;;
23800;SDS011;12081;48.614;10.226;2023-08-01T15:54:41;1.58;;;1.20;;
23800;SDS011;12081;48.614;10.226;2023-08-01T15:57:25;1.63;;;1.17;;
23800;SDS011;12081;48.614;10.226;2023-08-01T16:00:09;1.38;;;0.82;;
23800;SDS011;12081;48.614;10.226;2023-08-01T16:02:55;2.75;;;1.30;;
23800;SDS011;12081;48.614;10.226;2023-08-01T16:05:39;2.58;;;1.13;;
23800;SDS011;12081;48.614;10.226;2023-08-01T16:08:23;2.85;;;1.02;;
23800;SDS011;12081;48.614;10.226;2023-08-01T16:11:07;3.17;;;1.20;;
23800;SDS011;12081;48.614;10.226;2023-08-01T16:13:51;2.05;;;1.00;;
23800;SDS011;12081;48.614;10.226;2023-08-01T16:16:35;2.67;;;1.25;;
23800;SDS011;12081;48.614;10.226;2023-08-01T16:19:20;1.65;;;1.02;;
23800;SDS011;12081;48.614;10.226;2023-08-01T16:22:04;1.20;;;1.00;;
23800;SDS011;12081;48.614;10.226;2023-08-01T16:24:49;3.47;;;1.20;;
23800;SDS011;12081;48.614;10.226;2023-08-01T16:27:33;2.13;;;1.00;;
23800;SDS011;12081;48.614;10.226;2023-08-01T16:30:17;1.38;;;1.10;;
23800;SDS011;12081;48.614;10.226;2023-08-01T16:33:02;3.40;;;1.00;;
23800;SDS011;12081;48.614;10.226;2023-08-01T16:35:46;2.15;;;1.08;;
23800;SDS011;12081;48.614;10.226;2023-08-01T16:38:30;2.45;;;1.20;;
23800;SDS011;12081;48.614;10.226;2023-08-01T16:41:14;1.70;;;1.20;;
23800;SDS011;12081;48.614;10.226;2023-08-01T16:44:04;2.05;;;1.42;;
23800;SDS011;12081;48.614;10.226;2023-08-01T16:46:49;2.22;;;1.13;;
23800;SDS011;12081;48.614;10.226;2023-08-01T16:49:32;1.50;;;1.05;;
23800;SDS011;12081;48.614;10.226;2023-08-01T16:52:16;1.88;;;1.00;;
23800;SDS011;12081;48.614;10.226;2023-08-01T16:55:00;1.63;;;0.93;;
23800;SDS011;12081;48.614;10.226;2023-08-01T16:57:45;1.30;;;1.10;;
23800;SDS011;12081;48.614;10.226;2023-08-01T17:00:29;1.67;;;1.25;;
23800;SDS011;12081;48.614;10.226;2023-08-01T17:03:14;1.45;;;0.82;;
23800;SDS011;12081;48.614;10.226;2023-08-01T17:05:58;4.35;;;1.40;;
23800;SDS011;12081;48.614;10.226;2023-08-01T17:08:42;1.60;;;1.02;;
23800;SDS011;12081;48.614;10.226;2023-08-01T17:11:26;4.65;;;1.48;;
23800;SDS011;12081;48.614;10.226;2023-08-01T17:14:11;1.33;;;1.13;;
23800;SDS011;12081;48.614;10.226;2023-08-01T17:16:55;1.45;;;0.98;;
23800;SDS011;12081;48.614;10.226;2023-08-01T17:19:39;1.17;;;0.85;;
23800;SDS011;12081;48.614;10.226;2023-08-01T17:22:23;2.80;;;1.33;;
23800;SDS011;12081;48.614;10.226;2023-08-01T17:25:10;6.38;;;1.60;;
23800;SDS011;12081;48.614;10.226;2023-08-01T17:27:54;1.30;;;1.00;;
23800;SDS011;12081;48.614;10.226;2023-08-01T17:30:39;2.63;;;1.10;;
23800;SDS011;12081;48.614;10.226;2023-08-01T17:33:24;1.42;;;1.13;;
23800;SDS011;12081;48.614;10.226;2023-08-01T17:36:08;1.75;;;1.20;;
23800;SDS011;12081;48.614;10.226;2023-08-01T17:38:53;1.23;;;1.00;;
23800;SDS011;12081;48.614;10.226;2023-08-01T17:41:37;2.40;;;1.17;;
23800;SDS011;12081;48.614;10.226;2023-08-01T17:44:21;1.92;;;1.10;;
23800;SDS011;12081;48.614;10.226;2023-08-01T17:47:05;2.10;;;1.33;;
23800;SDS011;12081;48.614;10.226;2023-08-01T17:49:50;2.50;;;1.30;;
23800;SDS011;12081;48.614;10.226;2023-08-01T17:52:34;2.63;;;1.10;;
23800;SDS011;12081;48.614;10.226;2023-08-01T17:55:19;1.93;;;1.10;;
23800;SDS011;12081;48.614;10.226;2023-08-01T17:58:03;1.30;;;1.00;;
23800;SDS011;12081;48.614;10.226;2023-08-01T18:00:48;1.03;;;0.83;;
23800;SDS011;12081;48.614;10.226;2023-08-01T18:03:32;3.07;;;0.80;;
23800;SDS011;12081;48.614;10.226;2023-08-01T18:06:17;2.67;;;1.00;;
23800;SDS011;12081;48.614;10.226;2023-08-01T18:09:02;1.73;;;1.00;;
23800;SDS011;12081;48.614;10.226;2023-08-01T18:11:46;1.87;;;1.00;;
23800;SDS011;12081;48.614;10.226;2023-08-01T18:14:32;1.77;;;1.10;;
23800;SDS011;12081;48.614;10.226;2023-08-01T18:17:18;1.52;;;1.10;;
23800;SDS011;12081;48.614;10.226;2023-08-01T18:20:04;3.08;;;1.17;;
23800;SDS011;12081;48.614;10.226;2023-08-01T18:22:49;2.13;;;1.00;;
23800;SDS011;12081;48.614;10.226;2023-08-01T18:25:33;1.97;;;1.10;;
23800;SDS011;12081;48.614;10.226;2023-08-01T18:28:18;1.30;;;1.20;;
23800;SDS011;12081;48.614;10.226;2023-08-01T18:31:06;1.90;;;0.97;;
23800;SDS011;12081;48.614;10.226;2023-08-01T18:33:50;1.73;;;1.07;;
23800;SDS011;12081;48.614;10.226;2023-08-01T18:36:34;1.33;;;0.80;;
23800;SDS011;12081;48.614;10.226;2023-08-01T18:39:18;1.20;;;1.07;;
23800;SDS011;12081;48.614;10.226;2023-08-01T18:42:02;1.47;;;1.00;;
23800;SDS011;12081;48.614;10.226;2023-08-01T18:44:48;2.80;;;1.27;;
23800;SDS011;12081;48.614;10.226;2023-08-01T18:47:33;1.90;;;1.00;;
23800;SDS011;12081;48.614;10.226;2023-08-01T18:50:17;1.10;;;1.00;;
23800;SDS011;12081;48.614;10.226;2023-08-01T18:53:01;3.50;;;1.07;;
23800;SDS011;12081;48.614;10.226;2023-08-01T18:55:46;2.90;;;1.20;;
23800;SDS011;12081;48.614;10.226;2023-08-01T18:58:30;4.17;;;1.40;;
23800;SDS011;12081;48.614;10.226;2023-08-01T19:01:15;1.07;;;0.90;;
23800;SDS011;12081;48.614;10.226;2023-08-01T19:04:05;2.43;;;1.17;;
23800;SDS011;12081;48.614;10.226;2023-08-01T19:06:49;1.23;;;0.80;;
23800;SDS011;12081;48.614;10.226;2023-08-01T19:09:33;1.93;;;1.53;;
23800;SDS011;12081;48.614;10.226;2023-08-01T19:12:17;1.63;;;0.90;;
23800;SDS011;12081;48.614;10.226;2023-08-01T19:15:01;2.27;;;1.30;;
23800;SDS011;12081;48.614;10.226;2023-08-01T19:17:46;1.80;;;1.20;;
23800;SDS011;12081;48.614;10.226;2023-08-01T19:20:30;2.37;;;1.00;;
23800;SDS011;12081;48.614;10.226;2023-08-01T19:23:14;1.70;;;1.20;;
23800;SDS011;12081;48.614;10.226;2023-08-01T19:26:07;1.67;;;1.20;;
23800;SDS011;12081;48.614;10.226;2023-08-01T19:28:53;2.10;;;1.30;;
23800;SDS011;12081;48.614;10.226;2023-08-01T19:31:37;1.63;;;1.03;;
23800;SDS011;12081;48.614;10.226;2023-08-01T19:34:21;2.33;;;1.30;;
23800;SDS011;12081;48.614;10.226;2023-08-01T19:37:05;1.77;;;0.87;;
23800;SDS011;12081;48.614;10.226;2023-08-01T19:39:49;1.40;;;0.90;;
23800;SDS011;12081;48.614;10.226;2023-08-01T19:42:33;2.73;;;1.50;;
23800;SDS011;12081;48.614;10.226;2023-08-01T19:45:18;2.97;;;1.17;;
23800;SDS011;12081;48.614;10.226;2023-08-01T19:48:02;2.30;;;1.30;;
23800;SDS011;12081;48.614;10.226;2023-08-01T19:50:49;1.77;;;1.20;;
23800;SDS011;12081;48.614;10.226;2023-08-01T19:53:37;2.20;;;1.10;;
23800;SDS011;12081;48.614;10.226;2023-08-01T19:56:21;2.20;;;1.20;;
23800;SDS011;12081;48.614;10.226;2023-08-01T19:59:05;2.37;;;1.10;;
23800;SDS011;12081;48.614;10.226;2023-08-01T20:01:50;4.17;;;1.37;;
23800;SDS011;12081;48.614;10.226;2023-08-01T20:04:34;2.97;;;1.30;;
23800;SDS011;12081;48.614;10.226;2023-08-01T20:07:18;1.77;;;1.10;;
23800;SDS011;12081;48.614;10.226;2023-08-01T20:10:02;2.80;;;1.23;;
23800;SDS011;12081;48.614;10.226;2023-08-01T20:12:47;3.37;;;1.27;;
23800;SDS011;12081;48.614;10.226;2023-08-01T20:15:34;2.53;;;1.30;;
23800;SDS011;12081;48.614;10.226;2023-08-01T20:18:18;1.83;;;1.10;;
23800;SDS011;12081;48.614;10.226;2023-08-01T20:21:03;1.40;;;1.07;;
23800;SDS011;12081;48.614;10.226;2023-08-01T20:23:48;2.40;;;0.80;;
23800;SDS011;12081;48.614;10.226;2023-08-01T20:26:32;2.37;;;1.30;;
23800;SDS011;12081;48.614;10.226;2023-08-01T20:29:17;1.37;;;1.10;;
23800;SDS011;12081;48.614;10.226;2023-08-01T20:32:01;1.60;;;1.40;;
23800;SDS011;12081;48.614;10.226;2023-08-01T20:34:46;2.37;;;1.20;;
23800;SDS011;12081;48.614;10.226;2023-08-01T20:37:31;1.90;;;1.33;;
23800;SDS011;12081;48.614;10.226;2023-08-01T20:40:17;1.97;;;1.30;;
23800;SDS011;12081;48.614;10.226;2023-08-01T20:43:02;2.27;;;1.30;;
23800;SDS011;12081;48.614;10.226;2023-08-01T20:45:46;2.30;;;1.23;;
23800;SDS011;12081;48.614;10.226;2023-08-01T20:48:31;3.67;;;1.20;;
23800;SDS011;12081;48.614;10.226;2023-08-01T20:51:14;1.20;;;1.10;;
23800;SDS011;12081;48.614;10.226;2023-08-01T20:53:58;1.93;;;1.37;;
23800;SDS011;12081;48.614;10.226;2023-08-01T20:56:44;1.20;;;1.10;;
23800;SDS011;12081;48.614;10.226;2023-08-01T20:59:28;2.63;;;1.37;;
23800;SDS011;12081;48.614;10.226;2023-08-01T21:02:14;3.00;;;1.20;;
23800;SDS011;12081;48.614;10.226;2023-08-01T21:04:58;1.80;;;1.20;;
23800;SDS011;12081;48.614;10.226;2023-08-01T21:07:42;2.17;;;1.30;;
23800;SDS011;12081;48.614;10.226;2023-08-01T21:10:30;5.23;;;1.40;;
23800;SDS011;12081;48.614;10.226;2023-08-01T21:13:15;2.77;;;1.47;;
23800;SDS011;12081;48.614;10.226;2023-08-01T21:15:59;2.53;;;1.33;;
23800;SDS011;12081;48.614;10.226;2023-08-01T21:18:53;4.30;;;1.80;;
23800;SDS011;12081;48.614;10.226;2023-08-01T21:21:37;4.63;;;1.30;;
23800;SDS011;12081;48.614;10.226;2023-08-01T21:24:21;3.30;;;1.53;;
23800;SDS011;12081;48.614;10.226;2023-08-01T21:27:05;2.00;;;1.40;;
23800;SDS011;12081;48.614;10.226;2023-08-01T21:29:49;2.13;;;1.20;;
23800;SDS011;12081;48.614;10.226;2023-08-01T21:32:33;2.13;;;1.23;;
